Chesterfield, Massachusetts
Current Conditions -  °F | °C
As of 10:53 AM on Thursday 30 Oct 2014 (Local Time) from KBAF Reporting Station
Clear Clear  
Wind Chill: 54°   Ceiling: Unl
Heat Index: 54°   Visibility: 10mi
Dew Point: 38°   Wind: 7mph
Humidity: 55%   Direction: 310°NW
Pressure: 29.97"   Gusts: 18mph
Location:  42.39°N, 72.84°W
Report Text: KBAF 301453Z 31006G16KT 10SM CLR 12/03 A2997 RMK AO2 SLP150 T01220033 50002
Loading
Personal Weather Stations






























Interactive Weather Map
Tropical Storm Tracking
New forecast layout! Learn more

10-Day Weather Forecast

Advertisements
Track Severe Weather on mobile